sensor_id;sensor_type;location;lat;lon;timestamp;temperature;humidity
46752;DHT22;32497;48.936;9.270;2024-02-04T00:03:42;8.40;81.50
46752;DHT22;32497;48.936;9.270;2024-02-04T00:08:43;8.20;81.60
46752;DHT22;32497;48.936;9.270;2024-02-04T00:13:45;8.10;81.60
46752;DHT22;32497;48.936;9.270;2024-02-04T00:18:46;8.20;81.50
46752;DHT22;32497;48.936;9.270;2024-02-04T00:23:47;8.10;82.00
46752;DHT22;32497;48.936;9.270;2024-02-04T00:28:50;8.20;81.80
46752;DHT22;32497;48.936;9.270;2024-02-04T00:33:51;8.20;81.90
46752;DHT22;32497;48.936;9.270;2024-02-04T00:38:52;8.20;82.00
46752;DHT22;32497;48.936;9.270;2024-02-04T00:43:54;8.10;81.80
46752;DHT22;32497;48.936;9.270;2024-02-04T00:48:56;8.20;82.00
46752;DHT22;32497;48.936;9.270;2024-02-04T00:53:57;8.10;81.80
46752;DHT22;32497;48.936;9.270;2024-02-04T00:59:00;8.10;81.90
46752;DHT22;32497;48.936;9.270;2024-02-04T01:04:01;8.20;81.40
46752;DHT22;32497;48.936;9.270;2024-02-04T01:09:02;8.20;81.50
46752;DHT22;32497;48.936;9.270;2024-02-04T01:14:05;8.20;81.60
46752;DHT22;32497;48.936;9.270;2024-02-04T01:19:06;8.10;81.50
46752;DHT22;32497;48.936;9.270;2024-02-04T01:24:07;8.10;81.80
46752;DHT22;32497;48.936;9.270;2024-02-04T01:29:09;8.00;81.70
46752;DHT22;32497;48.936;9.270;2024-02-04T01:34:11;8.10;81.90
46752;DHT22;32497;48.936;9.270;2024-02-04T01:39:12;8.10;81.70
46752;DHT22;32497;48.936;9.270;2024-02-04T01:44:14;8.20;81.60
46752;DHT22;32497;48.936;9.270;2024-02-04T01:49:15;8.20;81.60
46752;DHT22;32497;48.936;9.270;2024-02-04T01:54:17;8.20;81.50
46752;DHT22;32497;48.936;9.270;2024-02-04T01:59:20;8.20;81.40
46752;DHT22;32497;48.936;9.270;2024-02-04T02:04:23;8.20;81.50
46752;DHT22;32497;48.936;9.270;2024-02-04T02:09:25;8.20;81.50
46752;DHT22;32497;48.936;9.270;2024-02-04T02:14:32;8.10;81.40
46752;DHT22;32497;48.936;9.270;2024-02-04T02:19:41;8.10;82.00
46752;DHT22;32497;48.936;9.270;2024-02-04T02:24:47;8.20;82.00
46752;DHT22;32497;48.936;9.270;2024-02-04T02:29:50;8.20;82.10
46752;DHT22;32497;48.936;9.270;2024-02-04T02:34:51;8.20;82.20
46752;DHT22;32497;48.936;9.270;2024-02-04T02:39:58;8.20;82.30
46752;DHT22;32497;48.936;9.270;2024-02-04T02:45:01;8.20;82.60
46752;DHT22;32497;48.936;9.270;2024-02-04T02:50:03;8.20;82.60
46752;DHT22;32497;48.936;9.270;2024-02-04T02:55:07;8.20;82.70
46752;DHT22;32497;48.936;9.270;2024-02-04T03:00:09;8.10;82.70
46752;DHT22;32497;48.936;9.270;2024-02-04T03:05:12;8.20;82.80
46752;DHT22;32497;48.936;9.270;2024-02-04T03:10:14;8.10;82.80
46752;DHT22;32497;48.936;9.270;2024-02-04T03:15:15;8.10;82.60
46752;DHT22;32497;48.936;9.270;2024-02-04T03:20:17;8.10;82.80
46752;DHT22;32497;48.936;9.270;2024-02-04T03:25:19;8.20;82.60
46752;DHT22;32497;48.936;9.270;2024-02-04T03:30:21;8.20;82.40
46752;DHT22;32497;48.936;9.270;2024-02-04T03:35:23;8.20;82.50
46752;DHT22;32497;48.936;9.270;2024-02-04T03:40:25;8.20;82.40
46752;DHT22;32497;48.936;9.270;2024-02-04T03:45:26;8.30;82.30
46752;DHT22;32497;48.936;9.270;2024-02-04T03:50:27;8.30;81.80
46752;DHT22;32497;48.936;9.270;2024-02-04T03:55:30;8.30;81.90
46752;DHT22;32497;48.936;9.270;2024-02-04T04:00:31;8.20;82.10
46752;DHT22;32497;48.936;9.270;2024-02-04T04:05:32;8.20;82.00
46752;DHT22;32497;48.936;9.270;2024-02-04T04:10:35;8.30;82.00
46752;DHT22;32497;48.936;9.270;2024-02-04T04:15:36;8.30;81.80
46752;DHT22;32497;48.936;9.270;2024-02-04T04:20:37;8.40;81.70
46752;DHT22;32497;48.936;9.270;2024-02-04T04:25:40;8.40;82.00
46752;DHT22;32497;48.936;9.270;2024-02-04T04:30:41;8.30;82.00
46752;DHT22;32497;48.936;9.270;2024-02-04T04:35:42;8.20;81.90
46752;DHT22;32497;48.936;9.270;2024-02-04T04:40:44;8.10;81.40
46752;DHT22;32497;48.936;9.270;2024-02-04T04:45:45;8.10;81.20
46752;DHT22;32497;48.936;9.270;2024-02-04T04:50:47;8.20;81.80
46752;DHT22;32497;48.936;9.270;2024-02-04T04:55:49;8.20;81.70
46752;DHT22;32497;48.936;9.270;2024-02-04T05:00:50;8.10;81.50
46752;DHT22;32497;48.936;9.270;2024-02-04T05:05:52;8.20;81.60
46752;DHT22;32497;48.936;9.270;2024-02-04T05:10:54;8.20;81.70
46752;DHT22;32497;48.936;9.270;2024-02-04T05:15:55;8.20;81.70
46752;DHT22;32497;48.936;9.270;2024-02-04T05:20:56;8.30;81.40
46752;DHT22;32497;48.936;9.270;2024-02-04T05:26:02;8.30;81.10
46752;DHT22;32497;48.936;9.270;2024-02-04T05:31:04;8.30;81.00
46752;DHT22;32497;48.936;9.270;2024-02-04T05:36:05;8.40;81.10
46752;DHT22;32497;48.936;9.270;2024-02-04T05:41:07;8.40;81.00
46752;DHT22;32497;48.936;9.270;2024-02-04T05:46:09;8.40;80.60
46752;DHT22;32497;48.936;9.270;2024-02-04T05:51:10;8.40;80.40
46752;DHT22;32497;48.936;9.270;2024-02-04T05:56:12;8.50;80.80
46752;DHT22;32497;48.936;9.270;2024-02-04T06:01:15;8.50;80.30
46752;DHT22;32497;48.936;9.270;2024-02-04T06:06:16;8.50;80.20
46752;DHT22;32497;48.936;9.270;2024-02-04T06:11:19;8.50;80.50
46752;DHT22;32497;48.936;9.270;2024-02-04T06:16:20;8.50;79.90
46752;DHT22;32497;48.936;9.270;2024-02-04T06:21:21;8.50;80.10
46752;DHT22;32497;48.936;9.270;2024-02-04T06:26:24;8.50;80.00
46752;DHT22;32497;48.936;9.270;2024-02-04T06:31:25;8.60;79.70
46752;DHT22;32497;48.936;9.270;2024-02-04T06:36:26;8.60;79.70
46752;DHT22;32497;48.936;9.270;2024-02-04T06:41:29;8.60;79.70
46752;DHT22;32497;48.936;9.270;2024-02-04T06:46:30;8.60;79.90
46752;DHT22;32497;48.936;9.270;2024-02-04T06:51:31;8.60;79.70
46752;DHT22;32497;48.936;9.270;2024-02-04T06:56:33;8.70;79.50
46752;DHT22;32497;48.936;9.270;2024-02-04T07:01:34;8.70;79.30
46752;DHT22;32497;48.936;9.270;2024-02-04T07:06:35;8.70;79.30
46752;DHT22;32497;48.936;9.270;2024-02-04T07:11:38;8.70;79.20
46752;DHT22;32497;48.936;9.270;2024-02-04T07:16:39;8.80;79.40
46752;DHT22;32497;48.936;9.270;2024-02-04T07:21:40;8.70;79.20
46752;DHT22;32497;48.936;9.270;2024-02-04T07:26:42;8.70;79.20
46752;DHT22;32497;48.936;9.270;2024-02-04T07:31:43;8.70;78.80
46752;DHT22;32497;48.936;9.270;2024-02-04T07:36:45;8.90;78.90
46752;DHT22;32497;48.936;9.270;2024-02-04T07:41:47;8.90;78.70
46752;DHT22;32497;48.936;9.270;2024-02-04T07:46:48;8.90;78.80
46752;DHT22;32497;48.936;9.270;2024-02-04T07:51:49;9.00;78.50
46752;DHT22;32497;48.936;9.270;2024-02-04T07:56:51;8.90;78.60
46752;DHT22;32497;48.936;9.270;2024-02-04T08:01:53;9.00;78.00
46752;DHT22;32497;48.936;9.270;2024-02-04T08:06:54;9.10;78.20
46752;DHT22;32497;48.936;9.270;2024-02-04T08:11:56;9.00;78.30
46752;DHT22;32497;48.936;9.270;2024-02-04T08:16:57;9.10;78.70
46752;DHT22;32497;48.936;9.270;2024-02-04T08:21:58;9.10;78.10
46752;DHT22;32497;48.936;9.270;2024-02-04T08:27:01;9.20;78.10
46752;DHT22;32497;48.936;9.270;2024-02-04T08:32:02;9.20;77.50
46752;DHT22;32497;48.936;9.270;2024-02-04T08:37:04;9.20;78.20
46752;DHT22;32497;48.936;9.270;2024-02-04T08:42:06;9.20;77.90
46752;DHT22;32497;48.936;9.270;2024-02-04T08:47:07;9.40;78.00
46752;DHT22;32497;48.936;9.270;2024-02-04T08:52:08;9.40;77.60
46752;DHT22;32497;48.936;9.270;2024-02-04T08:57:11;9.50;76.80
46752;DHT22;32497;48.936;9.270;2024-02-04T09:02:12;9.60;77.00
46752;DHT22;32497;48.936;9.270;2024-02-04T09:07:13;9.50;77.30
46752;DHT22;32497;48.936;9.270;2024-02-04T09:12:16;9.60;77.10
46752;DHT22;32497;48.936;9.270;2024-02-04T09:17:17;9.70;76.80
46752;DHT22;32497;48.936;9.270;2024-02-04T09:22:18;9.70;76.60
46752;DHT22;32497;48.936;9.270;2024-02-04T09:27:20;9.70;76.40
46752;DHT22;32497;48.936;9.270;2024-02-04T09:32:21;9.80;76.20
46752;DHT22;32497;48.936;9.270;2024-02-04T09:37:22;10.00;75.80
46752;DHT22;32497;48.936;9.270;2024-02-04T09:42:25;10.20;75.30
46752;DHT22;32497;48.936;9.270;2024-02-04T09:47:26;10.40;74.20
46752;DHT22;32497;48.936;9.270;2024-02-04T09:52:29;10.60;73.50
46752;DHT22;32497;48.936;9.270;2024-02-04T09:57:32;10.90;73.50
46752;DHT22;32497;48.936;9.270;2024-02-04T10:02:34;11.10;72.00
46752;DHT22;32497;48.936;9.270;2024-02-04T10:07:36;11.00;72.20
46752;DHT22;32497;48.936;9.270;2024-02-04T10:12:38;10.70;72.80
46752;DHT22;32497;48.936;9.270;2024-02-04T10:17:42;10.90;71.70
46752;DHT22;32497;48.936;9.270;2024-02-04T10:22:43;11.30;71.10
46752;DHT22;32497;48.936;9.270;2024-02-04T10:27:46;11.50;70.70
46752;DHT22;32497;48.936;9.270;2024-02-04T10:32:47;11.20;70.50
46752;DHT22;32497;48.936;9.270;2024-02-04T10:37:49;11.10;71.20
46752;DHT22;32497;48.936;9.270;2024-02-04T10:42:54;11.20;70.50
46752;DHT22;32497;48.936;9.270;2024-02-04T10:48:01;11.30;71.00
46752;DHT22;32497;48.936;9.270;2024-02-04T10:53:05;11.90;69.80
46752;DHT22;32497;48.936;9.270;2024-02-04T10:58:07;11.60;69.50
46752;DHT22;32497;48.936;9.270;2024-02-04T11:03:10;11.40;70.60
46752;DHT22;32497;48.936;9.270;2024-02-04T11:08:12;11.40;69.80
46752;DHT22;32497;48.936;9.270;2024-02-04T11:13:15;12.00;68.30
46752;DHT22;32497;48.936;9.270;2024-02-04T11:24:01;12.30;67.40
46752;DHT22;32497;48.936;9.270;2024-02-04T11:29:10;11.80;68.30
46752;DHT22;32497;48.936;9.270;2024-02-04T11:34:11;11.30;69.70
46752;DHT22;32497;48.936;9.270;2024-02-04T11:39:12;11.00;71.10
46752;DHT22;32497;48.936;9.270;2024-02-04T11:44:20;10.90;71.40
46752;DHT22;32497;48.936;9.270;2024-02-04T11:49:25;10.70;71.90
46752;DHT22;32497;48.936;9.270;2024-02-04T11:54:26;11.00;72.10
46752;DHT22;32497;48.936;9.270;2024-02-04T11:59:30;11.30;70.60
46752;DHT22;32497;48.936;9.270;2024-02-04T12:04:31;11.20;71.00
46752;DHT22;32497;48.936;9.270;2024-02-04T12:09:32;11.70;70.30
46752;DHT22;32497;48.936;9.270;2024-02-04T12:14:35;12.00;69.60
46752;DHT22;32497;48.936;9.270;2024-02-04T12:19:37;12.00;69.60
46752;DHT22;32497;48.936;9.270;2024-02-04T12:24:38;12.20;68.40
46752;DHT22;32497;48.936;9.270;2024-02-04T12:29:41;12.60;67.30
46752;DHT22;32497;48.936;9.270;2024-02-04T12:34:46;12.70;66.90
46752;DHT22;32497;48.936;9.270;2024-02-04T12:39:48;12.30;67.60
46752;DHT22;32497;48.936;9.270;2024-02-04T12:44:50;12.00;68.60
46752;DHT22;32497;48.936;9.270;2024-02-04T12:49:51;12.00;68.80
46752;DHT22;32497;48.936;9.270;2024-02-04T12:54:58;12.20;68.50
46752;DHT22;32497;48.936;9.270;2024-02-04T13:00:06;12.70;67.20
46752;DHT22;32497;48.936;9.270;2024-02-04T13:05:07;12.70;66.50
46752;DHT22;32497;48.936;9.270;2024-02-04T13:10:09;12.60;66.80
46752;DHT22;32497;48.936;9.270;2024-02-04T13:15:15;12.40;67.90
46752;DHT22;32497;48.936;9.270;2024-02-04T13:20:16;12.30;67.80
46752;DHT22;32497;48.936;9.270;2024-02-04T13:25:17;12.20;68.60
46752;DHT22;32497;48.936;9.270;2024-02-04T13:30:20;11.80;68.60
46752;DHT22;32497;48.936;9.270;2024-02-04T13:35:21;11.60;69.40
46752;DHT22;32497;48.936;9.270;2024-02-04T13:40:22;11.70;69.80
46752;DHT22;32497;48.936;9.270;2024-02-04T13:45:24;11.90;69.50
46752;DHT22;32497;48.936;9.270;2024-02-04T13:50:25;11.90;68.80
46752;DHT22;32497;48.936;9.270;2024-02-04T13:55:26;11.90;69.70
46752;DHT22;32497;48.936;9.270;2024-02-04T14:00:29;12.20;68.60
46752;DHT22;32497;48.936;9.270;2024-02-04T14:05:30;12.20;68.50
46752;DHT22;32497;48.936;9.270;2024-02-04T14:10:34;11.90;69.70
46752;DHT22;32497;48.936;9.270;2024-02-04T14:15:36;11.80;70.20
46752;DHT22;32497;48.936;9.270;2024-02-04T14:20:37;12.00;69.80
46752;DHT22;32497;48.936;9.270;2024-02-04T14:25:38;11.80;70.40
46752;DHT22;32497;48.936;9.270;2024-02-04T14:30:41;11.60;71.30
46752;DHT22;32497;48.936;9.270;2024-02-04T14:35:42;11.20;72.10
46752;DHT22;32497;48.936;9.270;2024-02-04T14:40:43;11.00;72.90
46752;DHT22;32497;48.936;9.270;2024-02-04T14:45:45;10.90;73.70
46752;DHT22;32497;48.936;9.270;2024-02-04T14:50:47;10.70;73.90
46752;DHT22;32497;48.936;9.270;2024-02-04T14:55:48;10.70;74.40
46752;DHT22;32497;48.936;9.270;2024-02-04T15:00:50;10.70;74.60
46752;DHT22;32497;48.936;9.270;2024-02-04T15:05:51;10.60;74.70
46752;DHT22;32497;48.936;9.270;2024-02-04T15:10:52;10.50;74.90
46752;DHT22;32497;48.936;9.270;2024-02-04T15:15:56;10.30;75.40
46752;DHT22;32497;48.936;9.270;2024-02-04T15:20:57;10.20;76.30
46752;DHT22;32497;48.936;9.270;2024-02-04T15:25:59;10.20;76.30
46752;DHT22;32497;48.936;9.270;2024-02-04T15:31:02;10.20;76.50
46752;DHT22;32497;48.936;9.270;2024-02-04T15:36:04;10.10;76.60
46752;DHT22;32497;48.936;9.270;2024-02-04T15:41:05;10.00;77.10
46752;DHT22;32497;48.936;9.270;2024-02-04T15:46:08;10.00;77.10
46752;DHT22;32497;48.936;9.270;2024-02-04T15:51:10;9.90;77.80
46752;DHT22;32497;48.936;9.270;2024-02-04T15:56:12;9.80;78.00
46752;DHT22;32497;48.936;9.270;2024-02-04T16:01:15;9.80;77.90
46752;DHT22;32497;48.936;9.270;2024-02-04T16:06:18;9.70;78.20
46752;DHT22;32497;48.936;9.270;2024-02-04T16:11:23;9.70;78.70
46752;DHT22;32497;48.936;9.270;2024-02-04T16:16:33;9.60;78.70
46752;DHT22;32497;48.936;9.270;2024-02-04T16:21:35;9.60;78.60
46752;DHT22;32497;48.936;9.270;2024-02-04T16:26:36;9.60;78.50
46752;DHT22;32497;48.936;9.270;2024-02-04T16:31:38;9.50;78.60
46752;DHT22;32497;48.936;9.270;2024-02-04T16:36:39;9.50;78.80
46752;DHT22;32497;48.936;9.270;2024-02-04T16:41:40;9.50;78.90
46752;DHT22;32497;48.936;9.270;2024-02-04T16:46:43;9.40;78.90
46752;DHT22;32497;48.936;9.270;2024-02-04T16:51:44;9.40;78.70
46752;DHT22;32497;48.936;9.270;2024-02-04T16:56:45;9.50;78.70
46752;DHT22;32497;48.936;9.270;2024-02-04T17:01:48;9.40;79.20
46752;DHT22;32497;48.936;9.270;2024-02-04T17:06:49;9.40;79.00
46752;DHT22;32497;48.936;9.270;2024-02-04T17:11:51;9.40;79.20
46752;DHT22;32497;48.936;9.270;2024-02-04T17:16:58;9.40;79.10
46752;DHT22;32497;48.936;9.270;2024-02-04T17:22:04;9.30;79.50
46752;DHT22;32497;48.936;9.270;2024-02-04T17:27:06;9.20;79.50
46752;DHT22;32497;48.936;9.270;2024-02-04T17:32:10;9.20;79.80
46752;DHT22;32497;48.936;9.270;2024-02-04T17:37:11;9.20;79.60
46752;DHT22;32497;48.936;9.270;2024-02-04T17:42:12;9.20;79.90
46752;DHT22;32497;48.936;9.270;2024-02-04T17:47:15;9.20;79.30
46752;DHT22;32497;48.936;9.270;2024-02-04T17:52:16;9.30;79.10
46752;DHT22;32497;48.936;9.270;2024-02-04T17:57:17;9.40;79.10
46752;DHT22;32497;48.936;9.270;2024-02-04T18:02:19;9.40;78.60
46752;DHT22;32497;48.936;9.270;2024-02-04T18:07:21;9.50;78.20
46752;DHT22;32497;48.936;9.270;2024-02-04T18:12:22;9.50;78.70
46752;DHT22;32497;48.936;9.270;2024-02-04T18:17:24;9.50;78.50
46752;DHT22;32497;48.936;9.270;2024-02-04T18:22:25;9.50;78.30
46752;DHT22;32497;48.936;9.270;2024-02-04T18:27:26;9.60;78.00
46752;DHT22;32497;48.936;9.270;2024-02-04T18:32:29;9.60;78.00
46752;DHT22;32497;48.936;9.270;2024-02-04T18:37:30;9.50;78.10
46752;DHT22;32497;48.936;9.270;2024-02-04T18:42:31;9.60;78.20
46752;DHT22;32497;48.936;9.270;2024-02-04T18:47:34;9.50;78.10
46752;DHT22;32497;48.936;9.270;2024-02-04T18:52:35;9.60;78.10
46752;DHT22;32497;48.936;9.270;2024-02-04T18:57:36;9.60;77.60
46752;DHT22;32497;48.936;9.270;2024-02-04T19:02:38;9.50;77.90
46752;DHT22;32497;48.936;9.270;2024-02-04T19:07:39;9.50;77.80
46752;DHT22;32497;48.936;9.270;2024-02-04T19:12:40;9.40;78.10
46752;DHT22;32497;48.936;9.270;2024-02-04T19:17:43;9.40;78.10
46752;DHT22;32497;48.936;9.270;2024-02-04T19:22:44;9.40;77.70
46752;DHT22;32497;48.936;9.270;2024-02-04T19:27:46;9.40;78.30
46752;DHT22;32497;48.936;9.270;2024-02-04T19:32:51;9.40;78.20
46752;DHT22;32497;48.936;9.270;2024-02-04T19:37:53;9.40;78.20
46752;DHT22;32497;48.936;9.270;2024-02-04T19:42:54;9.40;77.90
46752;DHT22;32497;48.936;9.270;2024-02-04T19:47:57;9.40;78.00
46752;DHT22;32497;48.936;9.270;2024-02-04T19:52:58;9.50;77.90
46752;DHT22;32497;48.936;9.270;2024-02-04T19:57:59;9.40;78.10
46752;DHT22;32497;48.936;9.270;2024-02-04T20:03:01;9.40;78.40
46752;DHT22;32497;48.936;9.270;2024-02-04T20:08:03;9.20;77.70
46752;DHT22;32497;48.936;9.270;2024-02-04T20:13:04;9.20;77.70
46752;DHT22;32497;48.936;9.270;2024-02-04T20:18:07;9.10;77.30
46752;DHT22;32497;48.936;9.270;2024-02-04T20:23:08;9.10;77.40
46752;DHT22;32497;48.936;9.270;2024-02-04T20:28:10;9.10;77.30
46752;DHT22;32497;48.936;9.270;2024-02-04T20:33:12;9.10;77.80
46752;DHT22;32497;48.936;9.270;2024-02-04T20:38:14;9.10;77.70
46752;DHT22;32497;48.936;9.270;2024-02-04T20:43:15;9.10;77.60
46752;DHT22;32497;48.936;9.270;2024-02-04T20:48:17;9.10;77.70
46752;DHT22;32497;48.936;9.270;2024-02-04T20:53:19;9.10;77.10
46752;DHT22;32497;48.936;9.270;2024-02-04T20:58:20;9.00;77.30
46752;DHT22;32497;48.936;9.270;2024-02-04T21:03:22;9.10;77.40
46752;DHT22;32497;48.936;9.270;2024-02-04T21:08:23;9.10;77.30
46752;DHT22;32497;48.936;9.270;2024-02-04T21:13:24;9.00;77.70
46752;DHT22;32497;48.936;9.270;2024-02-04T21:18:27;9.00;77.20
46752;DHT22;32497;48.936;9.270;2024-02-04T21:23:28;9.00;77.40
46752;DHT22;32497;48.936;9.270;2024-02-04T21:28:29;9.00;77.60
46752;DHT22;32497;48.936;9.270;2024-02-04T21:33:31;9.10;77.60
46752;DHT22;32497;48.936;9.270;2024-02-04T21:38:33;9.00;77.50
46752;DHT22;32497;48.936;9.270;2024-02-04T21:43:34;9.00;77.80
46752;DHT22;32497;48.936;9.270;2024-02-04T21:48:36;9.00;78.00
46752;DHT22;32497;48.936;9.270;2024-02-04T21:53:37;9.00;77.90
46752;DHT22;32497;48.936;9.270;2024-02-04T21:58:38;9.00;77.40
46752;DHT22;32497;48.936;9.270;2024-02-04T22:03:41;9.00;77.60
46752;DHT22;32497;48.936;9.270;2024-02-04T22:08:42;9.10;77.50
46752;DHT22;32497;48.936;9.270;2024-02-04T22:13:45;9.00;77.80
46752;DHT22;32497;48.936;9.270;2024-02-04T22:18:48;9.00;78.00
46752;DHT22;32497;48.936;9.270;2024-02-04T22:23:49;8.90;78.10
46752;DHT22;32497;48.936;9.270;2024-02-04T22:28:50;8.90;78.30
46752;DHT22;32497;48.936;9.270;2024-02-04T22:33:53;8.90;77.80
46752;DHT22;32497;48.936;9.270;2024-02-04T22:38:54;8.90;78.20
46752;DHT22;32497;48.936;9.270;2024-02-04T22:43:55;8.90;78.20
46752;DHT22;32497;48.936;9.270;2024-02-04T22:48:57;8.90;78.10
46752;DHT22;32497;48.936;9.270;2024-02-04T22:53:58;8.80;78.30
46752;DHT22;32497;48.936;9.270;2024-02-04T22:58:59;8.90;78.10
46752;DHT22;32497;48.936;9.270;2024-02-04T23:04:02;8.90;78.10
46752;DHT22;32497;48.936;9.270;2024-02-04T23:09:03;8.90;77.80
46752;DHT22;32497;48.936;9.270;2024-02-04T23:14:04;8.90;78.30
46752;DHT22;32497;48.936;9.270;2024-02-04T23:19:06;8.90;78.30
46752;DHT22;32497;48.936;9.270;2024-02-04T23:24:07;8.90;78.30
46752;DHT22;32497;48.936;9.270;2024-02-04T23:29:09;8.80;78.40
46752;DHT22;32497;48.936;9.270;2024-02-04T23:34:11;8.70;78.70
46752;DHT22;32497;48.936;9.270;2024-02-04T23:39:12;8.60;78.80
46752;DHT22;32497;48.936;9.270;2024-02-04T23:44:13;8.60;78.90
46752;DHT22;32497;48.936;9.270;2024-02-04T23:49:16;8.60;79.30
46752;DHT22;32497;48.936;9.270;2024-02-04T23:54:17;8.50;79.30
46752;DHT22;32497;48.936;9.270;2024-02-04T23:59:18;8.50;79.70
